Time;durP1;ratioP1;P1;durP2;ratioP2;P2;SDS_P1;SDS_P2;PMS_P1;PMS_P2;Temp;Humidity;BMP_temperature;BMP_pressure;BME280_temperature;BME280_humidity;BME280_pressure;Samples;Min_cycle;Max_cycle;Signal;HPM_P1;HPM_P2
2021/10/04 00:01:14;;;;;;;;;;;;;;;30.60;16.62;95167.16;4995559;28;19917;-49
2021/10/04 00:03:43;;;;;;;;;;;;;;;30.62;16.45;95159.41;4996173;28;20328;-53
2021/10/04 00:06:15;;;;;;;;;;;;;;;30.68;16.27;95167.84;4996032;28;19925;-53
2021/10/04 00:08:42;;;;;;;;;;;;;;;30.31;16.69;95165.75;4995548;28;19925;-67
2021/10/04 00:11:09;;;;;;;;;;;;;;;30.45;16.73;95165.69;4999934;28;19924;-46
2021/10/04 00:13:36;;;;;;;;;;;;;;;30.67;16.33;95169.03;4995902;28;20317;-65
2021/10/04 00:16:04;;;;;;;;;;;;;;;30.58;16.53;95164.03;4994956;28;19917;-61
2021/10/04 00:18:31;;;;;;;;;;;;;;;30.45;16.60;95163.00;4995854;28;19918;-63
2021/10/04 00:20:58;;;;;;;;;;;;;;;30.41;16.50;95173.00;5007657;28;19922;-57
2021/10/04 00:23:25;;;;;;;;;;;;;;;30.06;16.78;95174.72;4994976;28;19917;-50
2021/10/04 00:25:52;;;;;;;;;;;;;;;30.16;16.68;95177.75;4995453;28;19921;-46
2021/10/04 00:28:19;;;;;;;;;;;;;;;30.18;16.67;95178.13;4995054;28;19918;-47
2021/10/04 00:30:46;;;;;;;;;;;;;;;30.45;16.30;95164.88;4995544;28;20194;-54
2021/10/04 00:33:13;;;;;;;;;;;;;;;30.41;16.39;95170.31;4993962;28;19921;-46
2021/10/04 00:35:41;;;;;;;;;;;;;;;30.29;16.43;95174.22;4995550;28;19925;-70
2021/10/04 00:38:11;;;;;;;;;;;;;;;29.92;16.90;95177.44;4995384;28;19913;-55
2021/10/04 00:40:38;;;;;;;;;;;;;;;30.44;16.53;95169.50;4997286;28;19920;-46
2021/10/04 00:43:07;;;;;;;;;;;;;;;30.36;16.36;95173.41;4997851;28;19914;-64
2021/10/04 00:45:34;;;;;;;;;;;;;;;30.27;16.59;95167.69;4995320;28;19952;-47
2021/10/04 00:48:01;;;;;;;;;;;;;;;30.27;16.56;95175.78;4995277;28;19918;-57
2021/10/04 00:50:29;;;;;;;;;;;;;;;30.57;16.19;95167.91;4986460;28;19925;-47
2021/10/04 00:52:55;;;;;;;;;;;;;;;30.53;16.33;95167.16;4999361;28;19925;-48
2021/10/04 00:55:22;;;;;;;;;;;;;;;30.12;16.62;95166.22;4995021;28;20530;-45
2021/10/04 00:57:49;;;;;;;;;;;;;;;30.25;16.50;95161.94;4994870;28;19944;-65
2021/10/04 01:00:20;;;;;;;;;;;;;;;29.99;16.86;95160.47;4994905;28;20235;-47
2021/10/04 01:02:54;;;;;;;;;;;;;;;30.20;16.48;95163.13;4994843;28;19983;-55
2021/10/04 01:05:21;;;;;;;;;;;;;;;30.43;16.34;95154.50;4994863;28;19918;-47
2021/10/04 01:07:48;;;;;;;;;;;;;;;30.32;16.39;95161.88;4994735;28;20280;-54
2021/10/04 01:10:15;;;;;;;;;;;;;;;30.55;16.08;95158.69;4994906;28;19924;-48
2021/10/04 01:12:46;;;;;;;;;;;;;;;30.45;16.39;95165.69;4999192;28;19917;-47
2021/10/04 01:15:14;;;;;;;;;;;;;;;30.36;16.34;95168.03;4994317;28;19913;-46
2021/10/04 01:17:41;;;;;;;;;;;;;;;30.33;16.28;95163.41;4994720;28;19921;-47
2021/10/04 01:20:09;;;;;;;;;;;;;;;30.44;16.24;95166.81;5000614;28;20273;-53
2021/10/04 01:22:35;;;;;;;;;;;;;;;30.68;16.13;95160.53;5002647;28;19924;-52
2021/10/04 01:25:03;;;;;;;;;;;;;;;30.18;16.38;95170.03;4994905;28;20352;-51
2021/10/04 01:27:31;;;;;;;;;;;;;;;30.47;16.08;95163.34;4994452;28;19922;-47
2021/10/04 01:29:58;;;;;;;;;;;;;;;30.23;16.38;95169.66;4994571;28;20321;-54
2021/10/04 01:32:25;;;;;;;;;;;;;;;30.30;16.30;95169.59;4994566;28;19918;-45
2021/10/04 01:34:54;;;;;;;;;;;;;;;30.42;16.21;95155.66;4994870;28;19914;-47
2021/10/04 01:37:21;;;;;;;;;;;;;;;30.21;16.48;95167.34;4994418;28;19918;-60
2021/10/04 01:39:48;;;;;;;;;;;;;;;30.41;16.26;95164.91;4994699;28;19913;-71
2021/10/04 01:42:15;;;;;;;;;;;;;;;30.18;16.19;95157.31;4998481;28;19914;-51
2021/10/04 01:44:42;;;;;;;;;;;;;;;30.29;16.33;95162.69;4994781;28;19914;-52
2021/10/04 01:47:16;;;;;;;;;;;;;;;30.33;16.35;95155.34;4996518;28;19921;-52
2021/10/04 01:49:44;;;;;;;;;;;;;;;30.33;16.22;95147.25;5000551;28;19921;-48
2021/10/04 01:52:14;;;;;;;;;;;;;;;30.06;16.29;95147.00;5010267;28;19920;-58
2021/10/04 01:54:41;;;;;;;;;;;;;;;30.12;16.38;95141.97;4998305;28;19917;-62
2021/10/04 01:57:08;;;;;;;;;;;;;;;30.20;16.18;95148.88;4997784;28;19921;-50
2021/10/04 01:59:35;;;;;;;;;;;;;;;30.03;16.52;95153.94;4978464;28;19917;-47
2021/10/04 02:02:02;;;;;;;;;;;;;;;30.15;16.45;95152.72;4984193;28;19925;-48
2021/10/04 02:04:29;;;;;;;;;;;;;;;30.42;16.22;95152.19;4998141;28;19929;-47
2021/10/04 02:06:56;;;;;;;;;;;;;;;29.95;16.63;95157.81;4997807;28;19917;-49
2021/10/04 02:09:23;;;;;;;;;;;;;;;30.15;16.23;95154.66;4997725;28;19914;-48
2021/10/04 02:11:50;;;;;;;;;;;;;;;29.96;16.31;95161.28;5001157;28;19914;-49
2021/10/04 02:14:17;;;;;;;;;;;;;;;29.98;16.35;95159.72;4997955;28;19921;-46
2021/10/04 02:16:44;;;;;;;;;;;;;;;29.89;16.57;95156.66;4997559;28;20257;-49
2021/10/04 02:19:13;;;;;;;;;;;;;;;29.97;16.39;95166.28;4997453;28;19917;-45
2021/10/04 02:21:40;;;;;;;;;;;;;;;30.12;16.18;95166.22;5013572;28;19917;-49
2021/10/04 02:24:13;;;;;;;;;;;;;;;30.38;16.03;95171.88;4980621;28;20316;-59
2021/10/04 02:26:40;;;;;;;;;;;;;;;30.17;16.32;95163.88;4997411;28;20209;-51
2021/10/04 02:29:08;;;;;;;;;;;;;;;30.01;16.01;95175.09;4997537;28;19918;-46
2021/10/04 02:31:35;;;;;;;;;;;;;;;30.22;15.95;95173.50;4997265;28;19921;-48
2021/10/04 02:34:01;;;;;;;;;;;;;;;30.10;16.34;95173.94;4997662;28;19925;-48
2021/10/04 02:36:28;;;;;;;;;;;;;;;30.27;16.02;95168.47;4997223;28;19930;-55
2021/10/04 02:38:55;;;;;;;;;;;;;;;29.77;16.45;95175.97;4997410;28;19914;-47
2021/10/04 02:41:22;;;;;;;;;;;;;;;30.01;16.30;95169.72;4999538;28;19925;-49
2021/10/04 02:43:49;;;;;;;;;;;;;;;30.90;15.83;95174.63;4997757;28;19921;-59
2021/10/04 02:46:16;;;;;;;;;;;;;;;30.84;16.24;95173.53;4983748;28;19925;-47
2021/10/04 02:48:43;;;;;;;;;;;;;;;30.42;16.17;95179.16;4997204;28;20232;-49
2021/10/04 02:51:10;;;;;;;;;;;;;;;30.35;16.21;95183.44;4987301;28;19930;-64
2021/10/04 02:53:37;;;;;;;;;;;;;;;30.05;16.39;95178.56;4993870;28;19917;-70
2021/10/04 02:56:04;;;;;;;;;;;;;;;30.17;16.04;95181.97;4997236;28;19920;-71
2021/10/04 02:58:32;;;;;;;;;;;;;;;30.25;16.11;95178.88;4996812;28;19921;-46
2021/10/04 03:00:59;;;;;;;;;;;;;;;30.04;16.15;95174.34;4979291;28;19918;-47
2021/10/04 03:03:26;;;;;;;;;;;;;;;30.07;16.27;95173.56;4977732;28;19921;-45
2021/10/04 03:05:53;;;;;;;;;;;;;;;30.18;16.41;95175.44;4991499;28;20324;-46
2021/10/04 03:08:20;;;;;;;;;;;;;;;30.18;16.26;95175.44;4996978;28;19922;-45
2021/10/04 03:10:47;;;;;;;;;;;;;;;30.21;16.06;95188.16;4997038;28;19914;-46
2021/10/04 03:13:13;;;;;;;;;;;;;;;30.30;16.09;95183.84;5013085;28;19924;-47
2021/10/04 03:15:40;;;;;;;;;;;;;;;30.04;16.25;95185.13;5004234;28;19914;-46
2021/10/04 03:18:07;;;;;;;;;;;;;;;30.25;16.12;95178.13;4997026;28;20305;-47
2021/10/04 03:20:35;;;;;;;;;;;;;;;30.18;16.02;95178.88;5006430;28;19921;-57
2021/10/04 03:23:03;;;;;;;;;;;;;;;30.08;16.09;95167.00;4999510;28;19913;-56
2021/10/04 03:25:31;;;;;;;;;;;;;;;30.02;16.16;95184.72;5006004;28;20594;-64
2021/10/04 03:27:58;;;;;;;;;;;;;;;29.77;16.28;95175.97;4996758;28;20201;-53
2021/10/04 03:30:26;;;;;;;;;;;;;;;29.82;16.19;95167.47;4995713;28;19921;-47
2021/10/04 03:32:53;;;;;;;;;;;;;;;30.10;16.18;95177.41;4996898;28;19921;-45
2021/10/04 03:35:20;;;;;;;;;;;;;;;29.87;16.37;95172.44;4996544;28;20292;-61
2021/10/04 03:37:55;;;;;;;;;;;;;;;30.01;16.22;95179.72;4996512;28;19924;-47
2021/10/04 03:40:22;;;;;;;;;;;;;;;29.95;16.27;95168.59;4996242;28;20252;-46
2021/10/04 03:42:49;;;;;;;;;;;;;;;29.88;16.22;95176.69;5007962;28;20604;-47
2021/10/04 03:45:16;;;;;;;;;;;;;;;30.30;15.88;95172.31;5015933;28;19913;-58
2021/10/04 03:47:43;;;;;;;;;;;;;;;30.21;15.93;95177.38;5005785;28;19922;-59
2021/10/04 03:50:11;;;;;;;;;;;;;;;29.81;16.29;95182.09;5001214;28;20305;-50
2021/10/04 03:52:39;;;;;;;;;;;;;;;29.82;16.33;95180.94;4996049;28;19929;-65
2021/10/04 03:55:07;;;;;;;;;;;;;;;30.08;15.72;95171.63;4996112;28;19913;-51
2021/10/04 03:57:34;;;;;;;;;;;;;;;29.76;16.21;95179.81;4995710;28;20337;-61
2021/10/04 04:00:01;;;;;;;;;;;;;;;29.94;16.03;95183.22;4995603;28;20257;-46
2021/10/04 04:02:28;;;;;;;;;;;;;;;29.84;16.24;95172.47;4995616;28;19929;-48
2021/10/04 04:04:55;;;;;;;;;;;;;;;29.88;16.10;95173.97;4995828;28;19944;-64
2021/10/04 04:07:22;;;;;;;;;;;;;;;29.85;16.24;95172.06;4995274;28;19918;-47
2021/10/04 04:09:49;;;;;;;;;;;;;;;29.79;16.18;95179.03;4995004;28;19932;-47
2021/10/04 04:12:16;;;;;;;;;;;;;;;29.62;16.20;95185.22;5000940;28;19917;-60
2021/10/04 04:14:43;;;;;;;;;;;;;;;29.47;16.43;95181.81;5015347;28;20236;-47
2021/10/04 04:17:11;;;;;;;;;;;;;;;29.69;16.27;95186.00;5010165;28;19939;-47
2021/10/04 04:19:38;;;;;;;;;;;;;;;29.79;15.94;95181.72;4997345;28;20354;-46
2021/10/04 04:22:06;;;;;;;;;;;;;;;29.41;16.29;95186.78;5000485;28;19976;-61
2021/10/04 04:24:33;;;;;;;;;;;;;;;29.39;16.70;95199.84;4983346;28;20237;-47
2021/10/04 04:27:04;;;;;;;;;;;;;;;29.55;16.43;95196.03;4977839;28;19933;-48
2021/10/04 04:29:31;;;;;;;;;;;;;;;30.08;16.70;95188.56;4978263;28;19922;-47
2021/10/04 04:31:58;;;;;;;;;;;;;;;29.58;17.15;95206.00;4988370;28;19944;-46
2021/10/04 04:34:25;;;;;;;;;;;;;;;29.76;17.13;95193.28;4995454;28;19917;-66
2021/10/04 04:36:54;;;;;;;;;;;;;;;28.78;18.33;95192.91;4981126;28;19914;-47
2021/10/04 04:39:21;;;;;;;;;;;;;;;30.28;16.66;95182.72;4977826;28;19918;-44
2021/10/04 04:41:48;;;;;;;;;;;;;;;31.14;15.78;95188.34;4988946;28;19939;-51
2021/10/04 04:44:15;;;;;;;;;;;;;;;31.83;15.47;95181.97;4995820;28;20294;-47
2021/10/04 04:46:43;;;;;;;;;;;;;;;32.71;15.30;95195.53;4988923;28;19929;-45
2021/10/04 04:49:10;;;;;;;;;;;;;;;32.48;16.16;95188.13;4974772;28;19918;-49
2021/10/04 04:51:37;;;;;;;;;;;;;;;34.17;15.23;95207.44;4999802;28;19921;-45
2021/10/04 04:54:03;;;;;;;;;;;;;;;34.23;14.21;95202.28;4980889;28;19918;-53
2021/10/04 04:56:30;;;;;;;;;;;;;;;33.05;15.21;95200.84;4991332;28;19940;-46
2021/10/04 04:58:57;;;;;;;;;;;;;;;32.89;15.14;95204.19;4976335;28;19918;-46
2021/10/04 05:01:24;;;;;;;;;;;;;;;32.37;15.46;95212.63;4990852;28;19918;-45
2021/10/04 05:03:50;;;;;;;;;;;;;;;31.99;15.69;95203.00;4975629;28;19921;-45
2021/10/04 05:06:17;;;;;;;;;;;;;;;31.70;15.89;95207.91;4975872;28;19913;-44
2021/10/04 05:08:44;;;;;;;;;;;;;;;31.59;15.93;95208.03;4983936;28;19919;-44
2021/10/04 05:11:11;;;;;;;;;;;;;;;31.39;16.03;95209.75;4990710;28;19914;-44
2021/10/04 05:13:38;;;;;;;;;;;;;;;31.31;16.28;95208.31;5008896;28;19921;-44
2021/10/04 05:16:05;;;;;;;;;;;;;;;31.46;15.98;95210.47;5014775;28;19917;-44
2021/10/04 05:18:31;;;;;;;;;;;;;;;31.40;15.53;95205.91;5007904;28;19929;-51
2021/10/04 05:20:58;;;;;;;;;;;;;;;31.28;15.92;95204.47;5006713;28;19918;-45
2021/10/04 05:23:25;;;;;;;;;;;;;;;31.47;16.21;95206.59;4998923;28;20293;-44
2021/10/04 05:25:52;;;;;;;;;;;;;;;31.52;15.78;95202.72;4999082;28;19985;-45
2021/10/04 05:28:18;;;;;;;;;;;;;;;31.40;15.79;95216.69;4998759;28;19922;-45
2021/10/04 05:30:46;;;;;;;;;;;;;;;31.61;15.57;95216.50;4998678;28;19921;-55
2021/10/04 05:33:13;;;;;;;;;;;;;;;31.80;15.68;95213.25;4998045;28;19913;-45
2021/10/04 05:35:39;;;;;;;;;;;;;;;32.03;15.27;95220.75;4998724;28;19918;-44
2021/10/04 05:38:06;;;;;;;;;;;;;;;32.27;15.47;95218.94;4998260;28;19913;-48
2021/10/04 05:40:33;;;;;;;;;;;;;;;32.11;15.31;95222.19;4998786;28;19945;-44
2021/10/04 05:43:00;;;;;;;;;;;;;;;32.26;14.63;95225.50;5005846;28;19929;-46
2021/10/04 05:45:27;;;;;;;;;;;;;;;32.56;14.58;95221.28;5001372;28;19914;-45
2021/10/04 05:47:53;;;;;;;;;;;;;;;32.92;14.23;95221.56;4988798;28;19918;-45
2021/10/04 05:50:20;;;;;;;;;;;;;;;33.14;14.37;95219.31;4994052;28;19929;-45
2021/10/04 05:52:47;;;;;;;;;;;;;;;33.11;14.19;95216.25;5000336;28;19913;-45
2021/10/04 05:55:15;;;;;;;;;;;;;;;32.77;14.31;95226.38;4984665;28;19921;-44
2021/10/04 05:57:44;;;;;;;;;;;;;;;32.77;14.72;95224.44;4978774;28;19918;-43
2021/10/04 06:00:11;;;;;;;;;;;;;;;33.18;14.66;95220.00;4978607;28;19918;-45
2021/10/04 06:02:38;;;;;;;;;;;;;;;32.94;14.58;95230.03;4994061;28;19917;-44
2021/10/04 06:05:06;;;;;;;;;;;;;;;32.53;14.76;95219.38;4997840;28;19914;-44
2021/10/04 06:07:33;;;;;;;;;;;;;;;32.23;14.72;95220.88;4997462;28;20336;-44
2021/10/04 06:10:00;;;;;;;;;;;;;;;32.67;14.38;95221.91;4997777;28;20206;-45
2021/10/04 06:12:27;;;;;;;;;;;;;;;32.74;14.32;95232.63;4999222;28;19922;-46
2021/10/04 06:14:55;;;;;;;;;;;;;;;32.51;14.91;95227.91;5006517;28;19914;-44
2021/10/04 06:17:22;;;;;;;;;;;;;;;32.86;14.93;95225.91;4997688;28;19925;-45
2021/10/04 06:19:49;;;;;;;;;;;;;;;33.18;14.38;95230.84;5000897;28;19922;-44
2021/10/04 06:22:16;;;;;;;;;;;;;;;32.66;14.77;95233.91;5005050;28;19917;-45
2021/10/04 06:24:42;;;;;;;;;;;;;;;33.21;14.41;95235.44;4997028;28;19924;-44
2021/10/04 06:27:09;;;;;;;;;;;;;;;33.73;14.17;95233.81;4997666;28;19925;-46
2021/10/04 06:29:37;;;;;;;;;;;;;;;33.63;14.39;95234.75;4997466;28;19914;-45
2021/10/04 06:32:05;;;;;;;;;;;;;;;34.20;14.17;95243.81;4992792;28;20304;-44
2021/10/04 06:34:32;;;;;;;;;;;;;;;33.80;14.34;95242.97;4997259;28;19917;-45
2021/10/04 06:36:59;;;;;;;;;;;;;;;34.79;13.98;95249.19;4997588;28;19948;-46
2021/10/04 06:39:26;;;;;;;;;;;;;;;34.82;13.50;95251.06;4997210;28;19929;-46
2021/10/04 06:41:53;;;;;;;;;;;;;;;35.17;13.35;95248.78;4997214;28;19918;-47
2021/10/04 06:44:27;;;;;;;;;;;;;;;35.01;13.28;95248.75;5007400;28;20297;-44
2021/10/04 06:46:54;;;;;;;;;;;;;;;35.30;12.85;95252.34;4997415;28;19921;-45
2021/10/04 06:49:20;;;;;;;;;;;;;;;35.38;12.89;95248.28;4997091;28;20305;-45
2021/10/04 06:51:47;;;;;;;;;;;;;;;35.73;12.80;95252.06;5009292;28;19922;-45
2021/10/04 06:54:15;;;;;;;;;;;;;;;35.90;12.45;95247.38;4997185;28;19924;-45
2021/10/04 06:56:41;;;;;;;;;;;;;;;35.76;12.67;95255.91;4997467;28;19925;-45
2021/10/04 06:59:08;;;;;;;;;;;;;;;36.43;12.11;95247.91;4989818;28;20217;-45
2021/10/04 07:01:35;;;;;;;;;;;;;;;36.22;12.12;95254.69;4982852;28;19921;-44
2021/10/04 07:04:04;;;;;;;;;;;;;;;36.54;12.07;95253.06;4997021;28;19985;-45
2021/10/04 07:06:31;;;;;;;;;;;;;;;36.37;11.73;95249.63;4997252;28;19924;-45
2021/10/04 07:08:57;;;;;;;;;;;;;;;36.57;11.64;95242.06;4993423;28;19944;-45
2021/10/04 07:11:24;;;;;;;;;;;;;;;36.73;11.74;95252.13;4980977;28;19925;-45
2021/10/04 07:13:51;;;;;;;;;;;;;;;37.44;11.34;95254.63;5006653;28;19921;-49
2021/10/04 07:16:18;;;;;;;;;;;;;;;37.18;11.42;95262.81;4997108;28;20260;-46
2021/10/04 07:18:45;;;;;;;;;;;;;;;37.62;10.92;95252.09;4996947;28;19925;-46
2021/10/04 07:21:11;;;;;;;;;;;;;;;37.56;11.54;95256.56;5009579;28;20297;-45
2021/10/04 07:23:38;;;;;;;;;;;;;;;36.78;11.38;95258.97;4997077;28;19913;-46
2021/10/04 07:26:05;;;;;;;;;;;;;;;36.51;11.91;95265.59;4996794;28;19924;-45
2021/10/04 07:28:33;;;;;;;;;;;;;;;36.91;11.75;95259.75;4996913;28;19918;-46
2021/10/04 07:31:00;;;;;;;;;;;;;;;37.79;10.90;95256.22;4997010;28;19944;-46
2021/10/04 07:33:27;;;;;;;;;;;;;;;38.23;10.70;95256.25;4996580;28;19914;-45
2021/10/04 07:35:55;;;;;;;;;;;;;;;38.76;10.42;95248.88;4995176;28;19914;-46
2021/10/04 07:38:22;;;;;;;;;;;;;;;38.77;10.34;95249.63;4996841;28;19914;-45
2021/10/04 07:40:49;;;;;;;;;;;;;;;38.35;10.19;95247.25;4996894;28;20301;-45
2021/10/04 07:43:16;;;;;;;;;;;;;;;38.19;10.27;95252.91;4999707;28;19920;-45
2021/10/04 07:45:43;;;;;;;;;;;;;;;39.08;10.26;95255.88;5001566;28;19914;-44
2021/10/04 07:48:10;;;;;;;;;;;;;;;39.45;9.88;95250.50;4996785;28;19918;-45
2021/10/04 07:50:37;;;;;;;;;;;;;;;39.03;10.11;95256.41;5003692;28;19925;-45
2021/10/04 07:53:04;;;;;;;;;;;;;;;39.60;9.55;95258.94;4999912;28;19914;-46
2021/10/04 07:55:31;;;;;;;;;;;;;;;38.65;10.19;95247.75;4995810;28;19929;-46
2021/10/04 07:57:57;;;;;;;;;;;;;;;38.10;10.63;95241.91;4996319;28;20297;-46
2021/10/04 08:00:24;;;;;;;;;;;;;;;37.87;10.31;95241.13;4995916;28;19914;-46
2021/10/04 08:02:51;;;;;;;;;;;;;;;37.45;10.77;95237.81;4995617;28;19921;-45
2021/10/04 08:05:18;;;;;;;;;;;;;;;37.52;10.70;95242.31;4995602;28;19913;-46
2021/10/04 08:07:45;;;;;;;;;;;;;;;37.08;10.63;95236.66;4995792;28;20336;-45
2021/10/04 08:10:11;;;;;;;;;;;;;;;37.00;11.00;95236.13;4995592;28;19929;-46
2021/10/04 08:12:38;;;;;;;;;;;;;;;37.08;10.86;95225.75;4995636;28;19920;-45
2021/10/04 08:15:06;;;;;;;;;;;;;;;37.24;10.97;95233.81;5004284;28;19913;-45
2021/10/04 08:17:33;;;;;;;;;;;;;;;37.67;10.71;95233.19;5001333;28;19917;-46
2021/10/04 08:20:00;;;;;;;;;;;;;;;37.17;11.07;95227.81;5000054;28;19917;-45
2021/10/04 08:22:30;;;;;;;;;;;;;;;37.39;11.00;95225.97;5015319;28;19947;-44
2021/10/04 08:24:57;;;;;;;;;;;;;;;37.68;10.62;95225.75;4995858;28;19918;-45
2021/10/04 08:27:24;;;;;;;;;;;;;;;37.55;10.83;95225.81;4995369;28;19924;-44
2021/10/04 08:29:50;;;;;;;;;;;;;;;37.51;10.32;95214.28;4995360;28;19964;-45
2021/10/04 08:32:17;;;;;;;;;;;;;;;37.69;10.12;95223.81;4995583;28;19917;-45
2021/10/04 08:34:44;;;;;;;;;;;;;;;37.67;10.60;95216.06;4994889;28;19914;-45
2021/10/04 08:37:11;;;;;;;;;;;;;;;37.99;10.71;95230.59;4995419;28;19928;-45
2021/10/04 08:39:38;;;;;;;;;;;;;;;38.00;10.08;95232.09;4987476;28;19925;-44
2021/10/04 08:42:05;;;;;;;;;;;;;;;37.83;10.64;95217.91;4975908;28;20233;-44
2021/10/04 08:44:32;;;;;;;;;;;;;;;37.88;10.20;95220.06;4995294;28;19925;-45
2021/10/04 08:46:59;;;;;;;;;;;;;;;37.89;10.31;95216.13;4995246;28;19921;-44
2021/10/04 08:49:28;;;;;;;;;;;;;;;38.10;10.02;95215.38;4995202;28;19914;-46
2021/10/04 08:51:54;;;;;;;;;;;;;;;38.03;10.38;95209.41;5014746;28;19917;-45
2021/10/04 08:54:24;;;;;;;;;;;;;;;38.06;10.38;95206.56;5012222;28;19924;-45
2021/10/04 08:56:52;;;;;;;;;;;;;;;38.28;9.86;95198.38;4995108;28;19917;-46
2021/10/04 08:59:18;;;;;;;;;;;;;;;37.68;10.27;95195.75;4994861;28;20236;-45
2021/10/04 09:01:46;;;;;;;;;;;;;;;38.19;10.22;95206.50;4995158;28;20250;-45
2021/10/04 09:04:17;;;;;;;;;;;;;;;38.35;10.09;95198.13;4995141;28;19918;-46
2021/10/04 09:06:44;;;;;;;;;;;;;;;38.33;9.76;95203.25;4994833;28;19925;-45
2021/10/04 09:09:11;;;;;;;;;;;;;;;38.21;9.65;95195.91;4994849;28;19918;-45
2021/10/04 09:11:47;;;;;;;;;;;;;;;37.75;10.43;95195.56;4994927;28;20343;-53
2021/10/04 09:14:17;;;;;;;;;;;;;;;38.38;10.15;95186.28;5002781;28;19924;-48
2021/10/04 09:16:54;;;;;;;;;;;;;;;37.93;10.27;95190.22;4994642;28;19922;-46
2021/10/04 09:19:21;;;;;;;;;;;;;;;37.93;10.35;95181.28;4994538;28;19917;-46
2021/10/04 09:22:07;;;;;;;;;;;;;;;38.08;9.94;95178.81;5014501;28;19918;-47
2021/10/04 09:24:39;;;;;;;;;;;;;;;38.32;9.97;95182.63;5011645;28;19932;-45
2021/10/04 09:27:22;;;;;;;;;;;;;;;38.10;10.01;95182.63;4994718;28;19986;-46
2021/10/04 09:29:49;;;;;;;;;;;;;;;38.75;9.76;95175.56;4994725;28;19948;-47
2021/10/04 09:32:23;;;;;;;;;;;;;;;38.33;9.99;95175.19;4994893;28;19914;-46
2021/10/04 09:34:50;;;;;;;;;;;;;;;38.68;9.48;95170.38;4993499;28;19918;-46
2021/10/04 09:37:26;;;;;;;;;;;;;;;38.94;9.39;95171.69;4975274;28;19921;-46
2021/10/04 09:39:53;;;;;;;;;;;;;;;39.15;9.40;95165.38;4975165;28;19914;-46
2021/10/04 09:42:21;;;;;;;;;;;;;;;39.16;9.77;95166.13;4974359;28;19925;-47
2021/10/04 09:45:00;;;;;;;;;;;;;;;38.81;9.59;95168.31;4993370;28;19929;-47
2021/10/04 09:47:30;;;;;;;;;;;;;;;38.46;9.74;95157.50;4994500;28;19918;-50
2021/10/04 09:49:57;;;;;;;;;;;;;;;39.20;9.17;95155.06;4998770;28;19932;-47
2021/10/04 09:52:51;;;;;;;;;;;;;;;38.71;9.40;95158.53;5014128;28;19917;-45
2021/10/04 09:55:27;;;;;;;;;;;;;;;39.23;9.12;95152.16;5002617;28;19914;-47
2021/10/04 09:58:03;;;;;;;;;;;;;;;39.37;9.46;95148.84;4994616;28;19918;-46
2021/10/04 10:00:35;;;;;;;;;;;;;;;39.34;9.04;95143.53;4994617;28;19917;-46
2021/10/04 10:03:03;;;;;;;;;;;;;;;39.14;9.12;95147.47;4980971;28;19921;-46
2021/10/04 10:05:31;;;;;;;;;;;;;;;39.00;9.22;95142.53;4982923;28;19924;-46
2021/10/04 10:07:58;;;;;;;;;;;;;;;39.52;9.25;95137.31;4996910;28;19918;-46
2021/10/04 10:10:25;;;;;;;;;;;;;;;39.49;8.93;95133.50;4998032;28;20240;-47
2021/10/04 10:12:51;;;;;;;;;;;;;;;39.16;9.17;95134.09;4998005;28;19929;-52
2021/10/04 10:15:22;;;;;;;;;;;;;;;39.32;9.02;95135.03;5004409;28;20256;-50
2021/10/04 10:17:50;;;;;;;;;;;;;;;39.33;9.15;95133.81;4997930;28;19920;-49
2021/10/04 10:20:18;;;;;;;;;;;;;;;39.53;9.15;95125.94;4987652;28;19925;-55
2021/10/04 10:22:46;;;;;;;;;;;;;;;39.11;9.30;95136.69;5000070;28;19917;-46
2021/10/04 10:25:25;;;;;;;;;;;;;;;39.16;9.25;95117.69;5011237;28;19914;-46
2021/10/04 10:27:52;;;;;;;;;;;;;;;39.57;9.14;95118.34;4997749;28;19932;-45
2021/10/04 10:30:20;;;;;;;;;;;;;;;38.83;9.69;95119.44;4997576;28;20340;-46
2021/10/04 10:32:47;;;;;;;;;;;;;;;39.11;9.20;95121.03;4996880;28;19918;-44
2021/10/04 10:35:14;;;;;;;;;;;;;;;39.46;9.23;95112.53;4997074;28;19921;-46
2021/10/04 10:37:51;;;;;;;;;;;;;;;39.38;9.29;95111.34;4997212;28;19918;-45
2021/10/04 10:40:19;;;;;;;;;;;;;;;39.41;9.45;95105.72;4996877;28;19913;-46
2021/10/04 10:43:07;;;;;;;;;;;;;;;39.18;9.50;95109.03;4997558;28;19918;-45
2021/10/04 10:45:44;;;;;;;;;;;;;;;39.42;9.28;95098.25;5004393;28;19918;-46
2021/10/04 10:48:11;;;;;;;;;;;;;;;38.49;10.04;95093.78;4997156;28;19954;-46
2021/10/04 10:50:39;;;;;;;;;;;;;;;38.95;9.69;95091.22;5006980;28;19925;-45
2021/10/04 10:53:13;;;;;;;;;;;;;;;38.83;9.88;95092.88;5017093;28;20439;-46
2021/10/04 10:55:42;;;;;;;;;;;;;;;39.03;9.32;95095.16;5009210;28;19914;-51
2021/10/04 10:58:13;;;;;;;;;;;;;;;38.89;9.38;95079.38;4980346;28;19924;-46
2021/10/04 11:00:39;;;;;;;;;;;;;;;38.70;9.87;95075.84;4997158;28;19917;-46
2021/10/04 11:03:10;;;;;;;;;;;;;;;38.50;10.12;95078.94;4997380;28;19925;-45
2021/10/04 11:05:37;;;;;;;;;;;;;;;38.24;10.12;95078.38;4996966;28;19921;-46
2021/10/04 11:08:04;;;;;;;;;;;;;;;38.64;9.90;95074.16;4980975;28;19918;-46
2021/10/04 11:10:31;;;;;;;;;;;;;;;38.69;10.10;95062.63;4988402;28;20527;-46
2021/10/04 11:13:07;;;;;;;;;;;;;;;38.69;9.80;95070.81;4997189;28;19921;-47
2021/10/04 11:15:34;;;;;;;;;;;;;;;38.81;9.94;95059.03;5003587;28;19924;-45
2021/10/04 11:18:01;;;;;;;;;;;;;;;38.75;9.76;95060.81;4996779;28;19945;-46
2021/10/04 11:20:28;;;;;;;;;;;;;;;38.64;9.63;95060.50;5005677;28;19917;-45
2021/10/04 11:23:10;;;;;;;;;;;;;;;38.64;9.52;95049.56;5016585;28;19914;-47
2021/10/04 11:25:43;;;;;;;;;;;;;;;38.30;9.87;95040.34;5009858;28;19917;-45
2021/10/04 11:28:11;;;;;;;;;;;;;;;38.36;10.03;95044.00;4996730;28;19925;-47
2021/10/04 11:30:50;;;;;;;;;;;;;;;38.48;9.96;95042.38;4996596;28;19914;-46
2021/10/04 11:33:17;;;;;;;;;;;;;;;38.52;9.89;95043.75;4996681;28;19925;-45
2021/10/04 11:36:00;;;;;;;;;;;;;;;38.47;9.84;95030.69;4996455;28;19924;-45
2021/10/04 11:38:28;;;;;;;;;;;;;;;38.72;10.09;95037.13;4996471;28;19921;-45
2021/10/04 11:40:55;;;;;;;;;;;;;;;38.63;10.00;95028.94;4996368;28;20228;-46
2021/10/04 11:43:22;;;;;;;;;;;;;;;38.50;10.00;95035.22;4996591;28;19921;-46
2021/10/04 11:45:49;;;;;;;;;;;;;;;38.62;10.02;95024.66;5002833;28;19914;-46
2021/10/04 11:48:31;;;;;;;;;;;;;;;38.58;9.66;95026.78;4996366;28;19918;-47
2021/10/04 11:50:58;;;;;;;;;;;;;;;38.48;9.71;95024.00;5008778;28;19921;-44
2021/10/04 11:53:28;;;;;;;;;;;;;;;38.55;10.28;95023.75;5015992;28;20233;-45
2021/10/04 11:55:58;;;;;;;;;;;;;;;38.72;9.98;95018.00;5008065;28;19924;-44
2021/10/04 11:58:25;;;;;;;;;;;;;;;38.68;9.35;95017.41;4996193;28;19918;-45
2021/10/04 12:00:52;;;;;;;;;;;;;;;38.35;9.45;95015.19;4996066;28;19925;-45
2021/10/04 12:03:25;;;;;;;;;;;;;;;38.37;9.93;95012.75;4996219;28;19914;-44
2021/10/04 12:05:53;;;;;;;;;;;;;;;38.27;9.87;95022.16;4995282;28;19921;-46
2021/10/04 12:08:19;;;;;;;;;;;;;;;38.33;9.62;95014.88;4995230;28;19918;-48
2021/10/04 12:11:00;;;;;;;;;;;;;;;38.25;9.77;95013.63;4995838;28;20194;-45
2021/10/04 12:13:28;;;;;;;;;;;;;;;38.46;9.83;95025.66;4995930;28;19914;-46
2021/10/04 12:15:56;;;;;;;;;;;;;;;38.38;9.57;95016.25;5000905;28;19925;-45
2021/10/04 12:18:24;;;;;;;;;;;;;;;38.38;9.92;95006.09;4995771;28;19921;-45
2021/10/04 12:20:51;;;;;;;;;;;;;;;38.27;9.39;95005.00;4995790;28;19921;-45
2021/10/04 12:23:19;;;;;;;;;;;;;;;38.50;9.74;95002.47;4995795;28;19989;-46
2021/10/04 12:25:47;;;;;;;;;;;;;;;38.30;9.80;95006.84;4995537;28;19917;-45
2021/10/04 12:28:18;;;;;;;;;;;;;;;38.26;9.65;95001.53;4995651;28;19922;-45
2021/10/04 12:30:52;;;;;;;;;;;;;;;38.40;9.30;95008.38;4994969;28;19948;-47
2021/10/04 12:33:19;;;;;;;;;;;;;;;38.42;9.44;95008.69;4995610;28;20307;-45
2021/10/04 12:35:47;;;;;;;;;;;;;;;38.49;9.09;95003.69;4995417;28;19921;-45
2021/10/04 12:38:16;;;;;;;;;;;;;;;38.66;9.34;94992.53;4995672;28;20344;-45
2021/10/04 12:40:47;;;;;;;;;;;;;;;38.29;9.28;94999.84;4995326;28;19914;-45
2021/10/04 12:43:15;;;;;;;;;;;;;;;38.69;9.07;94992.38;4995506;28;19921;-44
2021/10/04 12:45:54;;;;;;;;;;;;;;;38.68;9.13;94987.34;5001054;28;19925;-45
2021/10/04 12:48:21;;;;;;;;;;;;;;;38.52;9.00;94999.31;4995231;28;19922;-46
2021/10/04 12:50:48;;;;;;;;;;;;;;;38.46;9.15;94990.19;4996135;28;20225;-46
2021/10/04 12:53:19;;;;;;;;;;;;;;;38.23;9.34;94991.47;4995458;28;19921;-45
2021/10/04 12:55:50;;;;;;;;;;;;;;;38.21;9.29;94991.16;4995052;28;19991;-46